sensor_id;sensor_type;location;lat;lon;timestamp;P1;durP1;ratioP1;P2;durP2;ratioP2
11655;SDS011;5884;43.618;1.438;2023-03-25T05:47:40;5.63;;;2.10;;
11655;SDS011;5884;43.618;1.438;2023-03-25T05:50:08;7.13;;;2.10;;
11655;SDS011;5884;43.618;1.438;2023-03-25T05:52:38;6.67;;;1.60;;
11655;SDS011;5884;43.618;1.438;2023-03-25T05:55:08;7.63;;;1.80;;
11655;SDS011;5884;43.618;1.438;2023-03-25T05:57:38;6.43;;;2.13;;
11655;SDS011;5884;43.618;1.438;2023-03-25T06:00:06;5.87;;;2.27;;
11655;SDS011;5884;43.618;1.438;2023-03-25T06:02:36;5.13;;;1.83;;
11655;SDS011;5884;43.618;1.438;2023-03-25T06:05:08;5.03;;;1.63;;
11655;SDS011;5884;43.618;1.438;2023-03-25T06:07:38;5.67;;;1.60;;
11655;SDS011;5884;43.618;1.438;2023-03-25T06:10:07;3.90;;;1.60;;
11655;SDS011;5884;43.618;1.438;2023-03-25T06:12:35;6.23;;;1.80;;
11655;SDS011;5884;43.618;1.438;2023-03-25T06:15:04;3.40;;;1.70;;
11655;SDS011;5884;43.618;1.438;2023-03-25T06:17:33;7.83;;;1.70;;
11655;SDS011;5884;43.618;1.438;2023-03-25T06:20:03;3.77;;;1.60;;
11655;SDS011;5884;43.618;1.438;2023-03-25T06:22:37;4.90;;;1.50;;
11655;SDS011;5884;43.618;1.438;2023-03-25T06:25:07;4.77;;;1.60;;
11655;SDS011;5884;43.618;1.438;2023-03-25T06:27:36;6.03;;;1.60;;
11655;SDS011;5884;43.618;1.438;2023-03-25T06:30:05;6.33;;;1.57;;
11655;SDS011;5884;43.618;1.438;2023-03-25T06:32:35;4.87;;;1.60;;
11655;SDS011;5884;43.618;1.438;2023-03-25T06:35:04;3.77;;;1.40;;
11655;SDS011;5884;43.618;1.438;2023-03-25T06:37:33;6.47;;;1.80;;
11655;SDS011;5884;43.618;1.438;2023-03-25T06:40:03;5.87;;;1.90;;
11655;SDS011;5884;43.618;1.438;2023-03-25T06:42:32;7.70;;;1.80;;
11655;SDS011;5884;43.618;1.438;2023-03-25T06:44:59;4.90;;;1.57;;
11655;SDS011;5884;43.618;1.438;2023-03-25T06:47:29;4.63;;;1.70;;
11655;SDS011;5884;43.618;1.438;2023-03-25T06:49:56;3.73;;;1.43;;
11655;SDS011;5884;43.618;1.438;2023-03-25T06:52:23;3.57;;;1.40;;
11655;SDS011;5884;43.618;1.438;2023-03-25T06:54:51;4.63;;;1.60;;
11655;SDS011;5884;43.618;1.438;2023-03-25T06:57:19;6.87;;;1.67;;
11655;SDS011;5884;43.618;1.438;2023-03-25T06:59:47;5.63;;;1.67;;
11655;SDS011;5884;43.618;1.438;2023-03-25T07:02:14;4.97;;;1.80;;
11655;SDS011;5884;43.618;1.438;2023-03-25T07:04:41;2.90;;;1.23;;
11655;SDS011;5884;43.618;1.438;2023-03-25T07:07:08;5.33;;;1.43;;
11655;SDS011;5884;43.618;1.438;2023-03-25T07:09:36;5.43;;;1.73;;
11655;SDS011;5884;43.618;1.438;2023-03-25T07:12:03;4.97;;;1.63;;
11655;SDS011;5884;43.618;1.438;2023-03-25T07:14:32;3.33;;;1.70;;
11655;SDS011;5884;43.618;1.438;2023-03-25T07:17:00;7.10;;;1.70;;
11655;SDS011;5884;43.618;1.438;2023-03-25T07:19:27;6.93;;;1.67;;
11655;SDS011;5884;43.618;1.438;2023-03-25T07:21:54;6.87;;;2.00;;
11655;SDS011;5884;43.618;1.438;2023-03-25T07:24:21;3.97;;;1.67;;
11655;SDS011;5884;43.618;1.438;2023-03-25T07:26:49;4.80;;;1.37;;
11655;SDS011;5884;43.618;1.438;2023-03-25T07:29:16;4.90;;;1.77;;
11655;SDS011;5884;43.618;1.438;2023-03-25T07:31:45;4.10;;;1.53;;
11655;SDS011;5884;43.618;1.438;2023-03-25T07:34:12;5.97;;;1.80;;
11655;SDS011;5884;43.618;1.438;2023-03-25T07:36:39;6.10;;;1.57;;
11655;SDS011;5884;43.618;1.438;2023-03-25T07:39:06;6.80;;;1.90;;
11655;SDS011;5884;43.618;1.438;2023-03-25T07:41:34;4.97;;;1.70;;
11655;SDS011;5884;43.618;1.438;2023-03-25T07:44:01;7.10;;;1.50;;
11655;SDS011;5884;43.618;1.438;2023-03-25T07:46:28;5.67;;;1.40;;
11655;SDS011;5884;43.618;1.438;2023-03-25T07:48:57;5.00;;;1.30;;
11655;SDS011;5884;43.618;1.438;2023-03-25T07:51:25;4.60;;;1.50;;
11655;SDS011;5884;43.618;1.438;2023-03-25T07:53:52;5.43;;;1.23;;
11655;SDS011;5884;43.618;1.438;2023-03-25T07:56:19;5.80;;;1.40;;
11655;SDS011;5884;43.618;1.438;2023-03-25T07:58:47;4.80;;;1.50;;
11655;SDS011;5884;43.618;1.438;2023-03-25T08:01:14;3.13;;;1.50;;
11655;SDS011;5884;43.618;1.438;2023-03-25T08:03:41;7.00;;;1.80;;
11655;SDS011;5884;43.618;1.438;2023-03-25T08:06:10;9.10;;;2.17;;
11655;SDS011;5884;43.618;1.438;2023-03-25T08:08:37;3.67;;;1.37;;
11655;SDS011;5884;43.618;1.438;2023-03-25T08:11:05;5.03;;;1.37;;
11655;SDS011;5884;43.618;1.438;2023-03-25T08:13:32;5.00;;;1.40;;
11655;SDS011;5884;43.618;1.438;2023-03-25T08:16:00;6.07;;;1.50;;
11655;SDS011;5884;43.618;1.438;2023-03-25T08:18:27;9.97;;;1.90;;
11655;SDS011;5884;43.618;1.438;2023-03-25T08:20:54;6.27;;;1.40;;
11655;SDS011;5884;43.618;1.438;2023-03-25T08:23:23;6.30;;;2.00;;
11655;SDS011;5884;43.618;1.438;2023-03-25T08:25:50;7.93;;;1.50;;
11655;SDS011;5884;43.618;1.438;2023-03-25T08:28:19;9.43;;;1.80;;
11655;SDS011;5884;43.618;1.438;2023-03-25T08:30:47;7.87;;;1.83;;
11655;SDS011;5884;43.618;1.438;2023-03-25T08:33:18;4.07;;;1.60;;
11655;SDS011;5884;43.618;1.438;2023-03-25T08:35:46;5.73;;;1.80;;
11655;SDS011;5884;43.618;1.438;2023-03-25T08:38:15;4.77;;;1.50;;
11655;SDS011;5884;43.618;1.438;2023-03-25T08:40:43;8.83;;;1.60;;
11655;SDS011;5884;43.618;1.438;2023-03-25T08:43:11;6.83;;;1.87;;
11655;SDS011;5884;43.618;1.438;2023-03-25T08:45:38;6.60;;;1.60;;
11655;SDS011;5884;43.618;1.438;2023-03-25T08:48:05;9.00;;;2.10;;
11655;SDS011;5884;43.618;1.438;2023-03-25T08:50:32;8.03;;;1.47;;
11655;SDS011;5884;43.618;1.438;2023-03-25T08:53:00;8.20;;;1.70;;
11655;SDS011;5884;43.618;1.438;2023-03-25T08:55:27;6.87;;;1.80;;
11655;SDS011;5884;43.618;1.438;2023-03-25T08:57:56;8.00;;;2.10;;
11655;SDS011;5884;43.618;1.438;2023-03-25T09:00:27;7.80;;;2.00;;
11655;SDS011;5884;43.618;1.438;2023-03-25T09:02:55;10.97;;;2.23;;
11655;SDS011;5884;43.618;1.438;2023-03-25T09:05:23;9.90;;;1.90;;
11655;SDS011;5884;43.618;1.438;2023-03-25T09:07:50;8.33;;;2.00;;
11655;SDS011;5884;43.618;1.438;2023-03-25T09:10:18;8.70;;;1.80;;
11655;SDS011;5884;43.618;1.438;2023-03-25T09:12:45;10.10;;;2.30;;
11655;SDS011;5884;43.618;1.438;2023-03-25T09:15:14;5.53;;;1.53;;
11655;SDS011;5884;43.618;1.438;2023-03-25T09:17:41;9.70;;;1.83;;
11655;SDS011;5884;43.618;1.438;2023-03-25T09:20:09;5.57;;;1.63;;
11655;SDS011;5884;43.618;1.438;2023-03-25T09:22:36;11.73;;;2.03;;
11655;SDS011;5884;43.618;1.438;2023-03-25T09:25:04;14.83;;;2.63;;
11655;SDS011;5884;43.618;1.438;2023-03-25T09:27:33;13.20;;;2.00;;
11655;SDS011;5884;43.618;1.438;2023-03-25T09:30:01;10.03;;;2.07;;
11655;SDS011;5884;43.618;1.438;2023-03-25T09:32:31;14.07;;;2.20;;
11655;SDS011;5884;43.618;1.438;2023-03-25T09:34:59;14.70;;;2.10;;
11655;SDS011;5884;43.618;1.438;2023-03-25T09:37:26;12.60;;;2.20;;
11655;SDS011;5884;43.618;1.438;2023-03-25T09:39:53;13.37;;;2.13;;
11655;SDS011;5884;43.618;1.438;2023-03-25T09:42:26;10.23;;;2.70;;
11655;SDS011;5884;43.618;1.438;2023-03-25T09:45:28;9.77;;;2.23;;
11655;SDS011;5884;43.618;1.438;2023-03-25T09:48:03;8.60;;;1.73;;
11655;SDS011;5884;43.618;1.438;2023-03-25T09:50:43;10.53;;;2.83;;
11655;SDS011;5884;43.618;1.438;2023-03-25T09:53:15;12.00;;;2.80;;
11655;SDS011;5884;43.618;1.438;2023-03-25T09:55:52;12.07;;;2.23;;
11655;SDS011;5884;43.618;1.438;2023-03-25T09:58:24;8.80;;;1.83;;
11655;SDS011;5884;43.618;1.438;2023-03-25T10:01:02;10.93;;;2.57;;
11655;SDS011;5884;43.618;1.438;2023-03-25T10:03:44;10.07;;;2.23;;
11655;SDS011;5884;43.618;1.438;2023-03-25T10:06:21;15.23;;;2.50;;
11655;SDS011;5884;43.618;1.438;2023-03-25T10:08:54;12.07;;;2.33;;
11655;SDS011;5884;43.618;1.438;2023-03-25T10:11:39;9.57;;;2.30;;
11655;SDS011;5884;43.618;1.438;2023-03-25T10:14:14;6.83;;;1.70;;
11655;SDS011;5884;43.618;1.438;2023-03-25T10:16:50;10.90;;;1.93;;
11655;SDS011;5884;43.618;1.438;2023-03-25T10:22:21;8.60;;;1.90;;
11655;SDS011;5884;43.618;1.438;2023-03-25T10:24:55;6.50;;;1.87;;
11655;SDS011;5884;43.618;1.438;2023-03-25T10:27:26;6.53;;;1.70;;
11655;SDS011;5884;43.618;1.438;2023-03-25T10:30:03;10.80;;;2.10;;
11655;SDS011;5884;43.618;1.438;2023-03-25T10:32:39;11.83;;;1.70;;
11655;SDS011;5884;43.618;1.438;2023-03-25T10:35:13;8.73;;;2.03;;
11655;SDS011;5884;43.618;1.438;2023-03-25T10:37:44;6.47;;;1.87;;
11655;SDS011;5884;43.618;1.438;2023-03-25T10:40:17;8.50;;;1.60;;
11655;SDS011;5884;43.618;1.438;2023-03-25T10:42:59;9.60;;;2.10;;
11655;SDS011;5884;43.618;1.438;2023-03-25T10:45:40;11.73;;;2.60;;
11655;SDS011;5884;43.618;1.438;2023-03-25T10:48:10;10.20;;;2.17;;
11655;SDS011;5884;43.618;1.438;2023-03-25T10:50:43;4.90;;;1.40;;
11655;SDS011;5884;43.618;1.438;2023-03-25T10:53:15;11.17;;;1.87;;
11655;SDS011;5884;43.618;1.438;2023-03-25T10:55:48;7.13;;;2.00;;
11655;SDS011;5884;43.618;1.438;2023-03-25T10:58:22;9.97;;;2.03;;
11655;SDS011;5884;43.618;1.438;2023-03-25T11:00:49;6.93;;;1.93;;
11655;SDS011;5884;43.618;1.438;2023-03-25T11:03:18;6.17;;;1.70;;
11655;SDS011;5884;43.618;1.438;2023-03-25T11:05:53;8.00;;;2.10;;
11655;SDS011;5884;43.618;1.438;2023-03-25T11:08:21;9.23;;;2.17;;
11655;SDS011;5884;43.618;1.438;2023-03-25T11:10:48;9.87;;;2.37;;
11655;SDS011;5884;43.618;1.438;2023-03-25T11:13:22;10.53;;;1.97;;
11655;SDS011;5884;43.618;1.438;2023-03-25T11:15:51;12.50;;;2.20;;
11655;SDS011;5884;43.618;1.438;2023-03-25T11:18:21;8.20;;;1.90;;
11655;SDS011;5884;43.618;1.438;2023-03-25T11:20:54;13.60;;;2.00;;
11655;SDS011;5884;43.618;1.438;2023-03-25T11:23:26;6.73;;;2.30;;
11655;SDS011;5884;43.618;1.438;2023-03-25T11:26:00;8.50;;;2.00;;
11655;SDS011;5884;43.618;1.438;2023-03-25T11:28:34;11.33;;;2.10;;
11655;SDS011;5884;43.618;1.438;2023-03-25T11:31:06;7.83;;;2.00;;
11655;SDS011;5884;43.618;1.438;2023-03-25T11:33:42;6.73;;;1.93;;
11655;SDS011;5884;43.618;1.438;2023-03-25T11:36:26;11.23;;;2.40;;
11655;SDS011;5884;43.618;1.438;2023-03-25T11:38:56;8.87;;;1.97;;
11655;SDS011;5884;43.618;1.438;2023-03-25T11:41:29;7.70;;;1.97;;
11655;SDS011;5884;43.618;1.438;2023-03-25T11:43:58;8.07;;;2.23;;
11655;SDS011;5884;43.618;1.438;2023-03-25T11:46:27;9.13;;;2.10;;
11655;SDS011;5884;43.618;1.438;2023-03-25T11:48:54;8.80;;;1.93;;
11655;SDS011;5884;43.618;1.438;2023-03-25T11:51:22;9.40;;;1.87;;
11655;SDS011;5884;43.618;1.438;2023-03-25T11:53:54;11.40;;;1.87;;
11655;SDS011;5884;43.618;1.438;2023-03-25T11:56:26;13.33;;;2.40;;
11655;SDS011;5884;43.618;1.438;2023-03-25T11:59:00;8.87;;;2.20;;
11655;SDS011;5884;43.618;1.438;2023-03-25T12:01:35;12.97;;;2.77;;
11655;SDS011;5884;43.618;1.438;2023-03-25T12:04:07;10.90;;;2.00;;
11655;SDS011;5884;43.618;1.438;2023-03-25T12:09:32;9.10;;;2.40;;
11655;SDS011;5884;43.618;1.438;2023-03-25T12:12:06;6.37;;;1.80;;
11655;SDS011;5884;43.618;1.438;2023-03-25T12:14:55;8.77;;;1.80;;
11655;SDS011;5884;43.618;1.438;2023-03-25T12:17:40;9.40;;;2.07;;
11655;SDS011;5884;43.618;1.438;2023-03-25T12:20:20;10.20;;;1.93;;
11655;SDS011;5884;43.618;1.438;2023-03-25T12:23:02;7.30;;;2.33;;
11655;SDS011;5884;43.618;1.438;2023-03-25T12:25:39;13.43;;;2.70;;
11655;SDS011;5884;43.618;1.438;2023-03-25T12:28:34;10.70;;;2.10;;
11655;SDS011;5884;43.618;1.438;2023-03-25T12:31:30;13.47;;;2.87;;
11655;SDS011;5884;43.618;1.438;2023-03-25T12:34:12;6.57;;;2.03;;
11655;SDS011;5884;43.618;1.438;2023-03-25T12:36:53;9.50;;;2.00;;
11655;SDS011;5884;43.618;1.438;2023-03-25T12:39:32;8.33;;;2.43;;
11655;SDS011;5884;43.618;1.438;2023-03-25T12:42:16;10.53;;;2.53;;
11655;SDS011;5884;43.618;1.438;2023-03-25T12:48:16;7.00;;;2.10;;
11655;SDS011;5884;43.618;1.438;2023-03-25T12:50:58;10.83;;;2.30;;
11655;SDS011;5884;43.618;1.438;2023-03-25T12:53:37;9.40;;;2.17;;
11655;SDS011;5884;43.618;1.438;2023-03-25T12:56:22;11.27;;;2.50;;
11655;SDS011;5884;43.618;1.438;2023-03-25T12:59:10;9.53;;;2.23;;
11655;SDS011;5884;43.618;1.438;2023-03-25T13:02:15;8.40;;;2.43;;
11655;SDS011;5884;43.618;1.438;2023-03-25T13:05:00;11.17;;;2.40;;
11655;SDS011;5884;43.618;1.438;2023-03-25T13:07:37;7.00;;;2.07;;
11655;SDS011;5884;43.618;1.438;2023-03-25T13:10:12;8.10;;;2.27;;
11655;SDS011;5884;43.618;1.438;2023-03-25T13:12:47;9.57;;;2.50;;
11655;SDS011;5884;43.618;1.438;2023-03-25T13:15:19;6.73;;;1.77;;
11655;SDS011;5884;43.618;1.438;2023-03-25T13:17:50;6.00;;;1.80;;
11655;SDS011;5884;43.618;1.438;2023-03-25T13:20:24;8.17;;;2.10;;
11655;SDS011;5884;43.618;1.438;2023-03-25T13:22:56;9.00;;;1.90;;
11655;SDS011;5884;43.618;1.438;2023-03-25T13:25:28;11.17;;;2.40;;
11655;SDS011;5884;43.618;1.438;2023-03-25T13:28:03;13.87;;;2.60;;
11655;SDS011;5884;43.618;1.438;2023-03-25T13:30:37;8.10;;;1.90;;
11655;SDS011;5884;43.618;1.438;2023-03-25T13:33:07;10.13;;;2.10;;
11655;SDS011;5884;43.618;1.438;2023-03-25T13:35:41;9.37;;;2.00;;
11655;SDS011;5884;43.618;1.438;2023-03-25T13:38:14;6.67;;;1.83;;
11655;SDS011;5884;43.618;1.438;2023-03-25T13:40:48;7.77;;;1.93;;
11655;SDS011;5884;43.618;1.438;2023-03-25T13:43:25;8.53;;;1.77;;
11655;SDS011;5884;43.618;1.438;2023-03-25T13:45:59;8.47;;;2.27;;
11655;SDS011;5884;43.618;1.438;2023-03-25T13:48:33;9.10;;;2.47;;
11655;SDS011;5884;43.618;1.438;2023-03-25T13:51:07;10.27;;;2.40;;
11655;SDS011;5884;43.618;1.438;2023-03-25T13:53:35;10.70;;;2.23;;
11655;SDS011;5884;43.618;1.438;2023-03-25T14:02:18;7.30;;;1.80;;
11655;SDS011;5884;43.618;1.438;2023-03-25T14:08:33;6.53;;;2.33;;
11655;SDS011;5884;43.618;1.438;2023-03-25T14:11:28;10.27;;;2.37;;
11655;SDS011;5884;43.618;1.438;2023-03-25T14:14:01;10.50;;;2.30;;
11655;SDS011;5884;43.618;1.438;2023-03-25T14:16:34;6.70;;;1.80;;
11655;SDS011;5884;43.618;1.438;2023-03-25T14:19:08;7.47;;;2.77;;
11655;SDS011;5884;43.618;1.438;2023-03-25T14:21:40;5.30;;;1.73;;
11655;SDS011;5884;43.618;1.438;2023-03-25T14:24:10;7.37;;;2.10;;
11655;SDS011;5884;43.618;1.438;2023-03-25T14:26:42;7.93;;;2.00;;
11655;SDS011;5884;43.618;1.438;2023-03-25T14:29:17;6.57;;;2.20;;
11655;SDS011;5884;43.618;1.438;2023-03-25T14:32:03;8.47;;;1.93;;
11655;SDS011;5884;43.618;1.438;2023-03-25T14:38:20;8.20;;;2.03;;
11655;SDS011;5884;43.618;1.438;2023-03-25T14:44:24;4.60;;;1.90;;
11655;SDS011;5884;43.618;1.438;2023-03-25T14:50:00;6.20;;;2.10;;
11655;SDS011;5884;43.618;1.438;2023-03-25T14:52:36;9.20;;;2.60;;
11655;SDS011;5884;43.618;1.438;2023-03-25T14:55:08;10.53;;;2.27;;
11655;SDS011;5884;43.618;1.438;2023-03-25T14:57:41;12.00;;;1.90;;
11655;SDS011;5884;43.618;1.438;2023-03-25T15:00:17;5.10;;;1.80;;
11655;SDS011;5884;43.618;1.438;2023-03-25T15:02:53;7.57;;;1.97;;
11655;SDS011;5884;43.618;1.438;2023-03-25T15:05:28;5.23;;;1.80;;
11655;SDS011;5884;43.618;1.438;2023-03-25T15:07:58;8.47;;;3.77;;
11655;SDS011;5884;43.618;1.438;2023-03-25T15:10:37;9.13;;;2.20;;
11655;SDS011;5884;43.618;1.438;2023-03-25T15:13:08;6.07;;;2.77;;
11655;SDS011;5884;43.618;1.438;2023-03-25T15:15:55;9.10;;;2.00;;
11655;SDS011;5884;43.618;1.438;2023-03-25T15:24:46;5.13;;;1.93;;
11655;SDS011;5884;43.618;1.438;2023-03-25T15:33:34;8.83;;;2.17;;
11655;SDS011;5884;43.618;1.438;2023-03-25T15:36:26;6.63;;;2.10;;
11655;SDS011;5884;43.618;1.438;2023-03-25T15:39:40;6.97;;;1.70;;
11655;SDS011;5884;43.618;1.438;2023-03-25T15:45:18;7.83;;;2.07;;
11655;SDS011;5884;43.618;1.438;2023-03-25T15:48:11;4.67;;;1.60;;
11655;SDS011;5884;43.618;1.438;2023-03-25T15:51:00;5.27;;;1.83;;
11655;SDS011;5884;43.618;1.438;2023-03-25T15:54:15;7.47;;;1.73;;
11655;SDS011;5884;43.618;1.438;2023-03-25T15:56:58;6.83;;;2.20;;
11655;SDS011;5884;43.618;1.438;2023-03-25T15:59:31;5.07;;;2.00;;
11655;SDS011;5884;43.618;1.438;2023-03-25T16:02:10;7.37;;;1.87;;
11655;SDS011;5884;43.618;1.438;2023-03-25T16:04:48;7.27;;;2.10;;
11655;SDS011;5884;43.618;1.438;2023-03-25T16:07:18;11.27;;;2.23;;
11655;SDS011;5884;43.618;1.438;2023-03-25T16:09:49;9.63;;;1.70;;
11655;SDS011;5884;43.618;1.438;2023-03-25T16:12:18;6.87;;;1.87;;
11655;SDS011;5884;43.618;1.438;2023-03-25T16:14:47;6.40;;;1.70;;
11655;SDS011;5884;43.618;1.438;2023-03-25T16:17:15;5.10;;;1.90;;
11655;SDS011;5884;43.618;1.438;2023-03-25T16:19:45;6.27;;;1.60;;
11655;SDS011;5884;43.618;1.438;2023-03-25T16:22:19;6.40;;;1.80;;
11655;SDS011;5884;43.618;1.438;2023-03-25T16:24:51;7.23;;;1.80;;
11655;SDS011;5884;43.618;1.438;2023-03-25T16:27:23;6.80;;;1.73;;
11655;SDS011;5884;43.618;1.438;2023-03-25T16:29:53;7.33;;;1.90;;
11655;SDS011;5884;43.618;1.438;2023-03-25T16:32:21;8.27;;;2.00;;
11655;SDS011;5884;43.618;1.438;2023-03-25T16:34:51;8.63;;;2.10;;
11655;SDS011;5884;43.618;1.438;2023-03-25T16:37:20;8.13;;;1.90;;
11655;SDS011;5884;43.618;1.438;2023-03-25T16:39:49;7.03;;;1.97;;
11655;SDS011;5884;43.618;1.438;2023-03-25T16:42:20;7.17;;;2.13;;
11655;SDS011;5884;43.618;1.438;2023-03-25T16:44:52;6.37;;;1.77;;
11655;SDS011;5884;43.618;1.438;2023-03-25T16:47:20;5.00;;;1.70;;
11655;SDS011;5884;43.618;1.438;2023-03-25T16:49:49;7.83;;;2.27;;
11655;SDS011;5884;43.618;1.438;2023-03-25T16:52:22;6.90;;;1.90;;
11655;SDS011;5884;43.618;1.438;2023-03-25T16:57:52;5.83;;;2.07;;
11655;SDS011;5884;43.618;1.438;2023-03-25T17:00:21;6.67;;;1.90;;
11655;SDS011;5884;43.618;1.438;2023-03-25T17:02:49;5.57;;;2.27;;
11655;SDS011;5884;43.618;1.438;2023-03-25T17:05:19;6.17;;;1.70;;
11655;SDS011;5884;43.618;1.438;2023-03-25T17:07:50;7.53;;;2.13;;
11655;SDS011;5884;43.618;1.438;2023-03-25T17:10:24;7.37;;;1.90;;
11655;SDS011;5884;43.618;1.438;2023-03-25T17:12:55;8.50;;;1.80;;
11655;SDS011;5884;43.618;1.438;2023-03-25T17:15:29;7.00;;;1.70;;
11655;SDS011;5884;43.618;1.438;2023-03-25T17:17:59;7.10;;;2.33;;
11655;SDS011;5884;43.618;1.438;2023-03-25T17:20:29;8.63;;;2.20;;
11655;SDS011;5884;43.618;1.438;2023-03-25T17:23:03;7.97;;;2.00;;
11655;SDS011;5884;43.618;1.438;2023-03-25T17:25:34;8.77;;;2.23;;
11655;SDS011;5884;43.618;1.438;2023-03-25T17:28:27;6.13;;;1.87;;
11655;SDS011;5884;43.618;1.438;2023-03-25T17:31:15;5.63;;;2.20;;
11655;SDS011;5884;43.618;1.438;2023-03-25T17:33:57;7.00;;;2.00;;
11655;SDS011;5884;43.618;1.438;2023-03-25T17:36:27;8.93;;;1.97;;
11655;SDS011;5884;43.618;1.438;2023-03-25T17:38:58;6.80;;;2.10;;
11655;SDS011;5884;43.618;1.438;2023-03-25T17:41:29;7.97;;;2.17;;
11655;SDS011;5884;43.618;1.438;2023-03-25T17:44:03;7.80;;;2.13;;
11655;SDS011;5884;43.618;1.438;2023-03-25T17:46:31;6.87;;;2.20;;
11655;SDS011;5884;43.618;1.438;2023-03-25T17:49:00;7.90;;;2.30;;
11655;SDS011;5884;43.618;1.438;2023-03-25T17:51:28;5.93;;;1.57;;
11655;SDS011;5884;43.618;1.438;2023-03-25T17:53:55;7.10;;;2.20;;
11655;SDS011;5884;43.618;1.438;2023-03-25T17:56:25;5.70;;;2.00;;
11655;SDS011;5884;43.618;1.438;2023-03-25T17:58:55;7.47;;;2.50;;
11655;SDS011;5884;43.618;1.438;2023-03-25T18:01:25;6.00;;;2.30;;
11655;SDS011;5884;43.618;1.438;2023-03-25T18:03:54;6.83;;;2.03;;
11655;SDS011;5884;43.618;1.438;2023-03-25T18:06:22;7.57;;;2.20;;
11655;SDS011;5884;43.618;1.438;2023-03-25T18:08:51;6.73;;;3.10;;
11655;SDS011;5884;43.618;1.438;2023-03-25T18:11:19;8.43;;;2.17;;
11655;SDS011;5884;43.618;1.438;2023-03-25T18:13:47;10.20;;;2.40;;
11655;SDS011;5884;43.618;1.438;2023-03-25T18:16:14;7.53;;;2.30;;
11655;SDS011;5884;43.618;1.438;2023-03-25T18:18:42;7.33;;;1.93;;
11655;SDS011;5884;43.618;1.438;2023-03-25T18:21:10;7.07;;;2.13;;
11655;SDS011;5884;43.618;1.438;2023-03-25T18:23:39;5.03;;;1.83;;
11655;SDS011;5884;43.618;1.438;2023-03-25T18:26:12;7.40;;;2.40;;
11655;SDS011;5884;43.618;1.438;2023-03-25T18:28:42;6.43;;;2.40;;
11655;SDS011;5884;43.618;1.438;2023-03-25T18:31:10;7.20;;;2.37;;
11655;SDS011;5884;43.618;1.438;2023-03-25T18:33:41;5.97;;;2.27;;
11655;SDS011;5884;43.618;1.438;2023-03-25T18:36:08;7.13;;;2.27;;
11655;SDS011;5884;43.618;1.438;2023-03-25T18:38:36;6.10;;;2.10;;
11655;SDS011;5884;43.618;1.438;2023-03-25T18:41:04;12.13;;;2.73;;
11655;SDS011;5884;43.618;1.438;2023-03-25T18:43:32;8.20;;;2.60;;
11655;SDS011;5884;43.618;1.438;2023-03-25T18:46:01;7.47;;;2.50;;
11655;SDS011;5884;43.618;1.438;2023-03-25T18:48:29;8.40;;;2.70;;
11655;SDS011;5884;43.618;1.438;2023-03-25T18:50:57;10.70;;;2.63;;
11655;SDS011;5884;43.618;1.438;2023-03-25T18:53:26;8.77;;;3.00;;
11655;SDS011;5884;43.618;1.438;2023-03-25T18:55:54;8.47;;;2.90;;
11655;SDS011;5884;43.618;1.438;2023-03-25T18:58:25;9.17;;;2.60;;
11655;SDS011;5884;43.618;1.438;2023-03-25T19:00:55;6.27;;;2.33;;
11655;SDS011;5884;43.618;1.438;2023-03-25T19:03:24;7.67;;;3.00;;
11655;SDS011;5884;43.618;1.438;2023-03-25T19:05:55;9.83;;;2.87;;
11655;SDS011;5884;43.618;1.438;2023-03-25T19:08:24;11.40;;;3.10;;
11655;SDS011;5884;43.618;1.438;2023-03-25T19:10:52;8.20;;;2.87;;
11655;SDS011;5884;43.618;1.438;2023-03-25T19:13:19;7.90;;;2.77;;
11655;SDS011;5884;43.618;1.438;2023-03-25T19:15:47;11.30;;;3.77;;
11655;SDS011;5884;43.618;1.438;2023-03-25T19:18:15;8.53;;;3.60;;
11655;SDS011;5884;43.618;1.438;2023-03-25T19:20:46;8.43;;;3.20;;
11655;SDS011;5884;43.618;1.438;2023-03-25T19:23:14;9.97;;;3.20;;
11655;SDS011;5884;43.618;1.438;2023-03-25T19:25:43;9.27;;;3.43;;
11655;SDS011;5884;43.618;1.438;2023-03-25T19:28:12;11.03;;;3.33;;
11655;SDS011;5884;43.618;1.438;2023-03-25T19:30:41;8.70;;;3.10;;
11655;SDS011;5884;43.618;1.438;2023-03-25T19:33:10;8.97;;;2.87;;
11655;SDS011;5884;43.618;1.438;2023-03-25T19:35:39;9.63;;;2.80;;
11655;SDS011;5884;43.618;1.438;2023-03-25T19:38:09;8.13;;;2.87;;
11655;SDS011;5884;43.618;1.438;2023-03-25T19:40:37;6.27;;;2.77;;
11655;SDS011;5884;43.618;1.438;2023-03-25T19:43:04;9.93;;;3.50;;
11655;SDS011;5884;43.618;1.438;2023-03-25T19:45:32;8.73;;;3.40;;
11655;SDS011;5884;43.618;1.438;2023-03-25T19:48:00;12.43;;;3.63;;
11655;SDS011;5884;43.618;1.438;2023-03-25T19:50:29;9.03;;;3.47;;
11655;SDS011;5884;43.618;1.438;2023-03-25T19:52:58;8.43;;;3.57;;
11655;SDS011;5884;43.618;1.438;2023-03-25T19:55:31;9.57;;;4.00;;
11655;SDS011;5884;43.618;1.438;2023-03-25T19:57:59;10.97;;;3.80;;
11655;SDS011;5884;43.618;1.438;2023-03-25T20:00:26;7.53;;;4.20;;
11655;SDS011;5884;43.618;1.438;2023-03-25T20:02:56;11.77;;;3.77;;
11655;SDS011;5884;43.618;1.438;2023-03-25T20:05:26;10.67;;;3.80;;
11655;SDS011;5884;43.618;1.438;2023-03-25T20:07:54;11.30;;;4.47;;
11655;SDS011;5884;43.618;1.438;2023-03-25T20:10:22;10.27;;;4.70;;
11655;SDS011;5884;43.618;1.438;2023-03-25T20:12:53;11.43;;;4.27;;
11655;SDS011;5884;43.618;1.438;2023-03-25T20:15:22;14.03;;;4.77;;
11655;SDS011;5884;43.618;1.438;2023-03-25T20:17:51;8.50;;;4.33;;
11655;SDS011;5884;43.618;1.438;2023-03-25T20:20:20;9.13;;;4.20;;
11655;SDS011;5884;43.618;1.438;2023-03-25T20:22:48;10.23;;;4.93;;
11655;SDS011;5884;43.618;1.438;2023-03-25T20:25:16;14.80;;;6.03;;
11655;SDS011;5884;43.618;1.438;2023-03-25T20:27:46;12.00;;;5.50;;
11655;SDS011;5884;43.618;1.438;2023-03-25T20:30:15;12.57;;;5.57;;
11655;SDS011;5884;43.618;1.438;2023-03-25T20:32:44;14.37;;;5.27;;
11655;SDS011;5884;43.618;1.438;2023-03-25T20:35:12;12.40;;;5.40;;
11655;SDS011;5884;43.618;1.438;2023-03-25T20:37:41;13.20;;;5.90;;
11655;SDS011;5884;43.618;1.438;2023-03-25T20:40:10;13.20;;;5.33;;
11655;SDS011;5884;43.618;1.438;2023-03-25T20:42:44;14.17;;;6.60;;
11655;SDS011;5884;43.618;1.438;2023-03-25T20:45:13;15.50;;;6.10;;
11655;SDS011;5884;43.618;1.438;2023-03-25T20:47:43;14.10;;;5.90;;
11655;SDS011;5884;43.618;1.438;2023-03-25T20:50:12;16.57;;;5.87;;
11655;SDS011;5884;43.618;1.438;2023-03-25T20:52:41;15.87;;;5.60;;
11655;SDS011;5884;43.618;1.438;2023-03-25T20:55:09;15.23;;;6.27;;
11655;SDS011;5884;43.618;1.438;2023-03-25T20:57:36;11.80;;;5.33;;
11655;SDS011;5884;43.618;1.438;2023-03-25T21:00:05;12.03;;;5.40;;
11655;SDS011;5884;43.618;1.438;2023-03-25T21:02:38;12.83;;;5.20;;
11655;SDS011;5884;43.618;1.438;2023-03-25T21:05:06;16.73;;;5.40;;
11655;SDS011;5884;43.618;1.438;2023-03-25T21:07:34;13.10;;;5.53;;
11655;SDS011;5884;43.618;1.438;2023-03-25T21:10:02;10.97;;;5.13;;
11655;SDS011;5884;43.618;1.438;2023-03-25T21:12:30;12.33;;;5.67;;
11655;SDS011;5884;43.618;1.438;2023-03-25T21:14:59;12.43;;;5.93;;
11655;SDS011;5884;43.618;1.438;2023-03-25T21:17:28;10.23;;;5.43;;
11655;SDS011;5884;43.618;1.438;2023-03-25T21:19:57;13.50;;;5.07;;
11655;SDS011;5884;43.618;1.438;2023-03-25T21:22:24;11.90;;;5.17;;
11655;SDS011;5884;43.618;1.438;2023-03-25T21:24:52;9.43;;;5.00;;
11655;SDS011;5884;43.618;1.438;2023-03-25T21:27:19;15.67;;;5.90;;
11655;SDS011;5884;43.618;1.438;2023-03-25T21:29:46;12.90;;;5.30;;
11655;SDS011;5884;43.618;1.438;2023-03-25T21:32:14;11.20;;;5.10;;
11655;SDS011;5884;43.618;1.438;2023-03-25T21:34:41;10.30;;;5.03;;
11655;SDS011;5884;43.618;1.438;2023-03-25T21:37:10;13.97;;;5.30;;
11655;SDS011;5884;43.618;1.438;2023-03-25T21:39:37;11.47;;;5.20;;
11655;SDS011;5884;43.618;1.438;2023-03-25T21:42:04;12.17;;;5.43;;
11655;SDS011;5884;43.618;1.438;2023-03-25T21:44:31;13.47;;;5.17;;
11655;SDS011;5884;43.618;1.438;2023-03-25T21:46:59;12.60;;;5.77;;
11655;SDS011;5884;43.618;1.438;2023-03-25T21:49:30;11.77;;;5.93;;
11655;SDS011;5884;43.618;1.438;2023-03-25T21:51:58;17.43;;;6.27;;
11655;SDS011;5884;43.618;1.438;2023-03-25T21:54:27;13.33;;;5.53;;
11655;SDS011;5884;43.618;1.438;2023-03-25T21:56:55;12.13;;;5.27;;
11655;SDS011;5884;43.618;1.438;2023-03-25T21:59:28;10.10;;;5.03;;
